createdAt,value
2018-09-02T00:02:17.332Z,14.30
2018-09-02T00:04:46.896Z,15.30
2018-09-02T00:07:16.403Z,14.70
2018-09-02T00:09:45.974Z,15.33
2018-09-02T00:12:15.475Z,14.40
2018-09-02T00:14:45.012Z,14.37
2018-09-02T00:17:14.523Z,14.03
2018-09-02T00:19:44.052Z,13.57
2018-09-02T00:22:13.757Z,13.80
2018-09-02T00:24:43.312Z,14.47
2018-09-02T00:27:12.812Z,13.93
2018-09-02T00:29:42.351Z,13.40
2018-09-02T00:32:11.851Z,14.17
2018-09-02T00:34:41.442Z,14.03
2018-09-02T00:37:11.129Z,13.30
2018-09-02T00:39:40.897Z,14.77
2018-09-02T00:42:10.415Z,13.80
2018-09-02T00:44:40.015Z,14.13
2018-09-02T00:47:09.527Z,14.37
2018-09-02T00:49:39.076Z,14.50
2018-09-02T00:52:08.611Z,14.60
2018-09-02T00:54:38.112Z,14.13
2018-09-02T00:57:07.771Z,14.53
2018-09-02T00:59:37.315Z,14.83
2018-09-02T01:02:06.986Z,15.30
2018-09-02T01:04:36.523Z,15.70
2018-09-02T01:07:06.397Z,14.97
2018-09-02T01:09:35.927Z,14.57
2018-09-02T01:12:05.505Z,15.27
2018-09-02T01:14:35.115Z,15.43
2018-09-02T01:17:04.664Z,16.00
2018-09-02T01:19:34.349Z,15.70
2018-09-02T01:22:03.879Z,15.50
2018-09-02T01:24:33.417Z,15.13
2018-09-02T01:27:02.915Z,15.10
2018-09-02T01:29:32.482Z,14.63
2018-09-02T01:32:01.990Z,15.47
2018-09-02T01:34:31.584Z,14.57
2018-09-02T01:37:01.143Z,14.63
2018-09-02T01:39:30.793Z,13.93
2018-09-02T01:42:00.363Z,14.33
2018-09-02T01:44:30.264Z,13.63
2018-09-02T01:46:59.864Z,14.33
2018-09-02T01:49:29.356Z,13.70
2018-09-02T01:51:58.964Z,13.87
2018-09-02T01:54:28.468Z,13.67
2018-09-02T01:56:58.066Z,12.87
2018-09-02T01:59:27.650Z,13.27
2018-09-02T02:01:57.323Z,13.87
2018-09-02T02:04:29.648Z,13.80
2018-09-02T02:06:59.337Z,14.23
2018-09-02T02:09:28.923Z,13.70
2018-09-02T02:11:58.491Z,14.23
2018-09-02T02:14:27.975Z,14.40
2018-09-02T02:16:57.551Z,13.83
2018-09-02T02:19:27.047Z,14.50
2018-09-02T02:21:56.675Z,14.00
2018-09-02T02:24:26.282Z,13.67
2018-09-02T02:26:55.879Z,14.07
2018-09-02T02:29:25.425Z,14.13
2018-09-02T02:31:54.934Z,14.20
2018-09-02T02:34:24.544Z,13.60
2018-09-02T02:36:54.055Z,13.00
2018-09-02T02:39:23.648Z,14.03
2018-09-02T02:41:53.190Z,12.83
2018-09-02T02:44:22.737Z,13.50
2018-09-02T02:46:52.240Z,13.13
2018-09-02T02:49:21.772Z,13.43
2018-09-02T02:51:51.391Z,13.20
2018-09-02T02:54:21.099Z,12.90
2018-09-02T02:56:50.635Z,12.80
2018-09-02T02:59:20.159Z,13.17
2018-09-02T03:01:49.686Z,13.47
2018-09-02T03:04:19.351Z,12.53
2018-09-02T03:06:48.993Z,14.00
2018-09-02T03:09:18.583Z,13.57
2018-09-02T03:11:48.217Z,13.33
2018-09-02T03:14:17.692Z,14.53
2018-09-02T03:16:47.313Z,13.77
2018-09-02T03:19:16.880Z,14.10
2018-09-02T03:21:46.427Z,14.10
2018-09-02T03:24:16.022Z,13.83
2018-09-02T03:26:45.612Z,13.70
2018-09-02T03:29:15.188Z,13.77
2018-09-02T03:31:44.727Z,13.40
2018-09-02T03:34:14.369Z,12.70
2018-09-02T03:36:43.940Z,12.93
2018-09-02T03:39:13.543Z,13.07
2018-09-02T03:41:43.039Z,13.27
2018-09-02T03:44:12.621Z,12.40
2018-09-02T03:46:42.240Z,13.47
2018-09-02T03:49:11.880Z,13.10
2018-09-02T03:51:41.391Z,12.47
2018-09-02T03:54:11.001Z,12.57
2018-09-02T03:56:40.613Z,13.93
2018-09-02T03:59:10.108Z,12.37
2018-09-02T04:01:39.643Z,13.00
2018-09-02T04:04:09.190Z,13.00
2018-09-02T04:06:38.832Z,12.33
2018-09-02T04:09:10.134Z,12.80
2018-09-02T04:11:39.927Z,11.67
2018-09-02T04:14:09.431Z,13.10
2018-09-02T04:16:39.013Z,13.73
2018-09-02T04:19:08.582Z,14.10
2018-09-02T04:21:38.126Z,14.37
2018-09-02T04:24:07.695Z,14.73
2018-09-02T04:26:37.254Z,14.50
2018-09-02T04:29:06.852Z,14.97
2018-09-02T04:31:36.451Z,16.17
2018-09-02T04:34:06.031Z,15.33
2018-09-02T04:36:35.532Z,15.77
2018-09-02T04:39:07.295Z,14.23
2018-09-02T04:41:43.331Z,14.53
2018-09-02T04:44:12.874Z,14.47
2018-09-02T04:46:42.407Z,14.97
2018-09-02T04:49:11.953Z,13.87
2018-09-02T04:51:41.495Z,14.67
2018-09-02T04:54:11.062Z,13.60
2018-09-02T04:56:40.608Z,14.67
2018-09-02T04:59:10.137Z,14.40
2018-09-02T05:01:39.642Z,14.77
2018-09-02T05:04:09.187Z,14.27
2018-09-02T05:06:38.883Z,13.77
2018-09-02T05:09:08.431Z,14.47
2018-09-02T05:11:38.039Z,13.67
2018-09-02T05:14:07.745Z,14.00
2018-09-02T05:16:37.243Z,13.30
2018-09-02T05:19:06.783Z,14.93
2018-09-02T05:21:36.392Z,13.63
2018-09-02T05:24:06.082Z,13.77
2018-09-02T05:26:35.734Z,15.23
2018-09-02T05:29:05.286Z,14.03
2018-09-02T05:31:34.859Z,14.57
2018-09-02T05:34:04.457Z,14.17
2018-09-02T05:36:34.058Z,14.50
2018-09-02T05:39:04.443Z,13.90
2018-09-02T05:41:34.030Z,16.83
2018-09-02T05:44:03.652Z,16.87
2018-09-02T05:46:33.201Z,21.47
2018-09-02T05:49:02.702Z,22.20
2018-09-02T05:51:32.251Z,21.23
2018-09-02T05:54:01.847Z,21.80
2018-09-02T05:56:31.399Z,25.27
2018-09-02T05:59:00.895Z,22.97
2018-09-02T06:01:30.439Z,19.83
2018-09-02T06:03:59.976Z,19.53
2018-09-02T06:06:29.608Z,18.23
2018-09-02T06:08:59.156Z,15.63
2018-09-02T06:11:28.715Z,16.57
2018-09-02T06:13:58.223Z,15.30
2018-09-02T06:16:27.857Z,15.33
2018-09-02T06:18:57.425Z,14.90
2018-09-02T06:21:27.319Z,13.83
2018-09-02T06:23:56.863Z,14.07
2018-09-02T06:26:26.499Z,14.10
2018-09-02T06:28:56.086Z,14.47
2018-09-02T06:31:25.639Z,14.20
2018-09-02T06:33:55.145Z,13.43
2018-09-02T06:36:24.754Z,12.83
2018-09-02T06:38:54.337Z,13.20
2018-09-02T06:41:23.948Z,13.73
2018-09-02T06:43:53.489Z,14.10
2018-09-02T06:46:23.069Z,13.50
2018-09-02T06:48:52.762Z,12.60
2018-09-02T06:51:22.408Z,12.80
2018-09-02T06:53:51.949Z,12.87
2018-09-02T06:56:21.495Z,11.90
2018-09-02T06:58:51.016Z,12.20
2018-09-02T07:01:20.804Z,12.20
2018-09-02T07:03:50.367Z,11.87
2018-09-02T07:06:19.931Z,11.47
2018-09-02T07:08:49.475Z,11.97
2018-09-02T07:11:19.067Z,12.77
2018-09-02T07:13:48.631Z,12.13
2018-09-02T07:16:18.198Z,12.30
2018-09-02T07:18:47.777Z,12.97
2018-09-02T07:21:17.378Z,12.30
2018-09-02T07:23:46.899Z,11.27
2018-09-02T07:26:16.520Z,12.80
2018-09-02T07:28:46.081Z,11.13
2018-09-02T07:31:15.707Z,11.93
2018-09-02T07:33:45.295Z,12.20
2018-09-02T07:36:14.804Z,12.07
2018-09-02T07:38:44.472Z,12.40
2018-09-02T07:41:13.995Z,12.07
2018-09-02T07:43:43.615Z,12.23
2018-09-02T07:46:13.121Z,11.80
2018-09-02T07:48:42.769Z,12.20
2018-09-02T07:51:12.315Z,12.07
2018-09-02T07:53:41.844Z,11.60
2018-09-02T07:56:11.380Z,12.40
2018-09-02T07:58:41.020Z,12.47
2018-09-02T08:01:10.652Z,12.07
2018-09-02T08:03:40.283Z,12.00
2018-09-02T08:06:10.022Z,11.57
2018-09-02T08:08:39.558Z,11.70
2018-09-02T08:11:09.516Z,11.40
2018-09-02T08:13:39.159Z,11.33
2018-09-02T08:16:09.933Z,11.63
2018-09-02T08:18:39.523Z,11.47
2018-09-02T08:21:09.161Z,10.63
2018-09-02T08:23:38.756Z,11.10
2018-09-02T08:26:08.405Z,11.40
2018-09-02T08:28:38.052Z,11.47
2018-09-02T08:31:07.724Z,11.20
2018-09-02T08:33:37.292Z,10.87
2018-09-02T08:36:06.850Z,10.83
2018-09-02T08:38:36.396Z,11.77
2018-09-02T08:41:06.000Z,11.10
2018-09-02T08:43:35.560Z,9.93
2018-09-02T08:46:05.191Z,10.30
2018-09-02T08:48:34.701Z,9.37
2018-09-02T08:51:04.287Z,9.43
2018-09-02T08:53:33.852Z,9.63
2018-09-02T08:56:03.419Z,9.47
2018-09-02T08:58:33.028Z,9.13
2018-09-02T09:01:02.571Z,8.17
2018-09-02T09:03:32.240Z,8.40
2018-09-02T09:06:01.826Z,8.50
2018-09-02T09:08:31.605Z,9.03
2018-09-02T09:11:01.236Z,8.30
2018-09-02T09:13:30.995Z,9.30
2018-09-02T09:16:00.627Z,9.10
2018-09-02T09:18:30.128Z,8.83
2018-09-02T09:20:59.680Z,8.73
2018-09-02T09:23:29.235Z,8.67
2018-09-02T09:25:58.784Z,8.47
2018-09-02T09:28:28.419Z,8.67
2018-09-02T09:30:57.984Z,8.20
2018-09-02T09:33:27.527Z,8.30
2018-09-02T09:35:57.038Z,8.53
2018-09-02T09:38:26.563Z,8.27
2018-09-02T09:40:56.119Z,8.23
2018-09-02T09:43:25.715Z,7.77
2018-09-02T09:45:55.316Z,7.13
2018-09-02T09:48:24.886Z,8.07
2018-09-02T09:50:54.445Z,7.67
2018-09-02T09:53:24.076Z,7.43
2018-09-02T09:55:53.680Z,7.73
2018-09-02T09:58:23.201Z,7.53
2018-09-02T10:00:53.283Z,7.20
2018-09-02T10:03:23.159Z,7.20
2018-09-02T10:05:52.659Z,7.23
2018-09-02T10:08:22.198Z,7.77
2018-09-02T10:10:51.762Z,7.77
2018-09-02T10:13:21.375Z,7.67
2018-09-02T10:15:50.977Z,7.33
2018-09-02T10:18:20.462Z,7.83
2018-09-02T10:20:50.091Z,7.63
2018-09-02T10:23:19.591Z,8.23
2018-09-02T10:25:49.141Z,7.28
2018-09-02T10:28:18.801Z,7.70
2018-09-02T10:30:48.346Z,7.77
2018-09-02T10:33:17.958Z,7.50
2018-09-02T10:35:47.492Z,7.75
2018-09-02T10:38:17.068Z,7.90
2018-09-02T10:40:46.631Z,7.42
2018-09-02T10:43:16.235Z,7.53
2018-09-02T10:45:45.771Z,7.65
2018-09-02T10:48:15.332Z,8.00
2018-09-02T10:50:44.864Z,8.53
2018-09-02T10:53:14.395Z,7.72
2018-09-02T10:55:43.963Z,7.80
2018-09-02T10:58:13.495Z,7.55
2018-09-02T11:00:43.015Z,8.03
2018-09-02T11:03:12.503Z,7.58
2018-09-02T11:05:42.037Z,8.08
2018-09-02T11:08:11.625Z,7.87
2018-09-02T11:10:41.171Z,7.62
2018-09-02T11:13:10.850Z,7.75
2018-09-02T11:15:40.479Z,8.03
2018-09-02T11:18:10.092Z,7.87
2018-09-02T11:20:39.717Z,7.22
2018-09-02T11:23:09.312Z,7.90
2018-09-02T11:25:38.956Z,7.78
2018-09-02T11:28:08.518Z,8.20
2018-09-02T11:30:38.156Z,8.40
2018-09-02T11:33:07.851Z,7.78
2018-09-02T11:35:37.623Z,8.05
2018-09-02T11:38:07.291Z,7.50
2018-09-02T11:40:36.788Z,8.05
2018-09-02T11:43:06.424Z,7.78
2018-09-02T11:45:36.012Z,7.80
2018-09-02T11:48:07.736Z,7.85
2018-09-02T11:50:37.672Z,7.78
2018-09-02T11:53:07.528Z,8.28
2018-09-02T11:55:37.128Z,8.00
2018-09-02T11:58:06.627Z,7.53
2018-09-02T12:00:36.298Z,7.43
2018-09-02T12:03:05.944Z,7.87
2018-09-02T12:05:35.492Z,7.83
2018-09-02T12:08:05.078Z,8.00
2018-09-02T12:10:34.686Z,7.62
2018-09-02T12:13:04.263Z,8.77
2018-09-02T12:15:33.847Z,8.00
2018-09-02T12:18:03.459Z,7.90
2018-09-02T12:20:32.995Z,7.40
2018-09-02T12:23:02.637Z,8.28
2018-09-02T12:25:32.168Z,7.17
2018-09-02T12:28:01.677Z,7.90
2018-09-02T12:30:31.218Z,7.92
2018-09-02T12:33:00.705Z,8.20
2018-09-02T12:35:30.716Z,7.65
2018-09-02T12:38:00.335Z,7.10
2018-09-02T12:40:29.856Z,7.50
2018-09-02T12:42:59.350Z,7.47
2018-09-02T12:45:28.967Z,7.47
2018-09-02T12:47:58.624Z,8.30
2018-09-02T12:50:28.094Z,7.37
2018-09-02T12:52:57.647Z,7.87
2018-09-02T12:55:27.369Z,7.53
2018-09-02T12:57:56.846Z,7.87
2018-09-02T13:00:26.435Z,7.73
2018-09-02T13:02:55.975Z,7.22
2018-09-02T13:05:25.477Z,7.80
2018-09-02T13:07:55.016Z,7.55
2018-09-02T13:10:24.668Z,7.57
2018-09-02T13:12:54.271Z,7.50
2018-09-02T13:15:23.914Z,7.85
2018-09-02T13:17:53.424Z,7.40
2018-09-02T13:20:23.028Z,7.12
2018-09-02T13:22:52.597Z,7.22
2018-09-02T13:25:22.184Z,7.62
2018-09-02T13:27:51.652Z,8.23
2018-09-02T13:30:21.223Z,7.53
2018-09-02T13:32:50.747Z,7.67
2018-09-02T13:35:20.297Z,7.92
2018-09-02T13:37:50.744Z,7.83
2018-09-02T13:40:20.394Z,7.35
2018-09-02T13:42:50.371Z,7.62
2018-09-02T13:45:19.968Z,7.40
2018-09-02T13:47:49.463Z,7.15
2018-09-02T13:50:19.013Z,7.20
2018-09-02T13:52:48.517Z,7.47
2018-09-02T13:55:18.033Z,7.30
2018-09-02T13:57:47.527Z,7.62
2018-09-02T14:00:17.079Z,7.10
2018-09-02T14:02:46.783Z,6.97
2018-09-02T14:05:16.406Z,8.00
2018-09-02T14:07:46.077Z,7.08
2018-09-02T14:10:15.865Z,7.78
2018-09-02T14:12:45.483Z,7.85
2018-09-02T14:15:15.127Z,7.92
2018-09-02T14:17:44.927Z,7.22
2018-09-02T14:20:14.475Z,8.18
2018-09-02T14:22:44.169Z,7.33
2018-09-02T14:25:13.829Z,7.65
2018-09-02T14:27:43.331Z,7.50
2018-09-02T14:30:12.875Z,8.00
2018-09-02T14:32:42.549Z,7.40
2018-09-02T14:35:12.081Z,7.40
2018-09-02T14:37:41.656Z,7.60
2018-09-02T14:40:11.199Z,6.92
2018-09-02T14:42:40.775Z,7.30
2018-09-02T14:45:10.333Z,8.00
2018-09-02T14:47:39.905Z,7.28
2018-09-02T14:50:09.500Z,7.65
2018-09-02T14:52:39.043Z,7.65
2018-09-02T14:55:08.714Z,7.20
2018-09-02T14:57:38.427Z,7.43
2018-09-02T15:00:07.987Z,8.63
2018-09-02T15:02:37.589Z,7.80
2018-09-02T15:05:07.100Z,7.05
2018-09-02T15:07:36.627Z,7.53
2018-09-02T15:10:06.248Z,7.28
2018-09-02T15:12:35.795Z,6.90
2018-09-02T15:15:05.501Z,7.20
2018-09-02T15:17:35.161Z,7.43
2018-09-02T15:20:04.839Z,7.70
2018-09-02T15:22:34.411Z,7.80
2018-09-02T15:25:04.012Z,8.03
2018-09-02T15:27:33.623Z,8.17
2018-09-02T15:30:03.133Z,8.58
2018-09-02T15:32:32.720Z,6.53
2018-09-02T15:35:02.223Z,6.70
2018-09-02T15:37:31.783Z,6.83
2018-09-02T15:40:01.343Z,6.83
2018-09-02T15:42:30.916Z,6.23
2018-09-02T15:45:00.628Z,6.63
2018-09-02T15:47:30.192Z,7.07
2018-09-02T15:49:59.692Z,6.80
2018-09-02T15:52:29.443Z,7.30
2018-09-02T15:54:59.015Z,6.90
2018-09-02T15:57:28.651Z,6.80
2018-09-02T15:59:58.233Z,6.70
2018-09-02T16:02:27.775Z,7.07
2018-09-02T16:04:57.351Z,6.90
2018-09-02T16:07:32.466Z,7.20
2018-09-02T16:10:03.117Z,7.13
2018-09-02T16:12:32.875Z,6.90
2018-09-02T16:15:02.685Z,7.97
2018-09-02T16:17:32.342Z,6.90
2018-09-02T16:20:02.049Z,7.67
2018-09-02T16:22:31.560Z,7.00
2018-09-02T16:25:01.059Z,7.17
2018-09-02T16:27:30.674Z,7.60
2018-09-02T16:30:00.291Z,7.63
2018-09-02T16:32:32.047Z,8.03
2018-09-02T16:35:01.878Z,8.00
2018-09-02T16:37:31.562Z,7.53
2018-09-02T16:40:01.312Z,7.10
2018-09-02T16:42:31.650Z,7.27
2018-09-02T16:45:01.369Z,7.43
2018-09-02T16:47:30.972Z,7.50
2018-09-02T16:50:00.508Z,7.70
2018-09-02T16:52:30.060Z,8.07
2018-09-02T16:54:59.643Z,7.87
2018-09-02T16:57:29.240Z,8.17
2018-09-02T16:59:58.759Z,7.93
2018-09-02T17:02:28.490Z,8.30
2018-09-02T17:05:09.335Z,7.80
2018-09-02T17:07:38.869Z,8.40
2018-09-02T17:10:08.447Z,8.03
2018-09-02T17:12:38.046Z,8.77
2018-09-02T17:15:07.588Z,8.10
2018-09-02T17:17:37.110Z,8.17
2018-09-02T17:20:07.303Z,8.00
2018-09-02T17:22:36.899Z,8.50
2018-09-02T17:25:06.596Z,8.97
2018-09-02T17:27:36.127Z,8.50
2018-09-02T17:30:05.924Z,8.37
2018-09-02T17:32:35.531Z,8.30
2018-09-02T17:35:05.143Z,7.27
2018-09-02T17:37:34.788Z,7.73
2018-09-02T17:40:04.480Z,8.70
2018-09-02T17:42:34.108Z,8.50
2018-09-02T17:45:03.632Z,7.80
2018-09-02T17:47:33.171Z,8.33
2018-09-02T17:50:02.732Z,8.00
2018-09-02T17:52:32.347Z,7.80
2018-09-02T17:55:01.971Z,7.70
2018-09-02T17:57:31.739Z,7.73
2018-09-02T18:00:01.404Z,7.70
2018-09-02T18:02:31.054Z,7.73
2018-09-02T18:05:00.632Z,8.20
2018-09-02T18:07:30.281Z,8.60
2018-09-02T18:09:59.823Z,9.57
2018-09-02T18:12:29.373Z,10.33
2018-09-02T18:14:58.942Z,11.10
2018-09-02T18:17:28.479Z,11.13
2018-09-02T18:19:58.039Z,11.27
2018-09-02T18:22:27.571Z,9.63
2018-09-02T18:24:57.076Z,9.27
2018-09-02T18:27:29.331Z,9.70
2018-09-02T18:29:59.699Z,9.90
2018-09-02T18:32:30.761Z,8.87
2018-09-02T18:35:01.116Z,9.87
2018-09-02T18:37:30.885Z,9.10
2018-09-02T18:40:00.488Z,9.53
2018-09-02T18:42:30.088Z,9.00
2018-09-02T18:44:59.688Z,9.07
2018-09-02T18:47:29.213Z,8.97
2018-09-02T18:49:58.857Z,8.40
2018-09-02T18:52:28.460Z,8.70
2018-09-02T18:54:57.999Z,8.90
2018-09-02T18:57:27.585Z,9.20
2018-09-02T18:59:57.135Z,8.77
2018-09-02T19:02:26.733Z,8.50
2018-09-02T19:04:56.377Z,8.37
2018-09-02T19:07:25.887Z,8.60
2018-09-02T19:09:55.486Z,8.70
2018-09-02T19:12:25.017Z,8.63
2018-09-02T19:14:54.560Z,8.30
2018-09-02T19:17:24.075Z,8.77
2018-09-02T19:19:53.645Z,9.03
2018-09-02T19:22:23.151Z,8.20
2018-09-02T19:24:52.752Z,8.73
2018-09-02T19:27:22.261Z,8.53
2018-09-02T19:29:51.879Z,8.33
2018-09-02T19:32:21.399Z,8.37
2018-09-02T19:34:51.029Z,8.23
2018-09-02T19:37:20.535Z,8.30
2018-09-02T19:39:50.083Z,8.03
2018-09-02T19:42:19.672Z,8.73
2018-09-02T19:44:49.211Z,8.17
2018-09-02T19:47:18.703Z,8.37
2018-09-02T19:49:48.331Z,8.97
2018-09-02T19:52:17.884Z,8.67
2018-09-02T19:54:47.431Z,9.23
2018-09-02T19:57:16.955Z,8.93
2018-09-02T19:59:46.626Z,8.93
2018-09-02T20:02:16.179Z,9.63
2018-09-02T20:04:45.863Z,9.30
2018-09-02T20:07:15.364Z,9.97
2018-09-02T20:09:44.990Z,11.40
2018-09-02T20:12:14.499Z,10.63
2018-09-02T20:14:44.075Z,12.53
2018-09-02T20:17:13.580Z,12.27
2018-09-02T20:19:43.075Z,10.73
2018-09-02T20:22:13.863Z,9.03
2018-09-02T20:24:43.414Z,9.43
2018-09-02T20:27:12.946Z,8.37
2018-09-02T20:29:42.498Z,8.20
2018-09-02T20:32:12.128Z,8.20
2018-09-02T20:34:41.721Z,8.43
2018-09-02T20:37:11.272Z,8.13
2018-09-02T20:39:40.796Z,8.17
2018-09-02T20:42:10.337Z,8.60
2018-09-02T20:44:39.901Z,8.70
2018-09-02T20:47:09.443Z,8.93
2018-09-02T20:49:38.943Z,8.93
2018-09-02T20:52:08.529Z,8.40
2018-09-02T20:54:38.101Z,8.43
2018-09-02T20:57:07.669Z,8.00
2018-09-02T20:59:37.316Z,8.63
2018-09-02T21:02:07.372Z,7.97
2018-09-02T21:04:36.955Z,8.30
2018-09-02T21:07:06.679Z,8.30
2018-09-02T21:09:36.277Z,8.33
2018-09-02T21:12:05.960Z,8.50
2018-09-02T21:14:35.555Z,8.33
2018-09-02T21:17:05.132Z,8.87
2018-09-02T21:19:34.659Z,7.93
2018-09-02T21:22:04.163Z,8.70
2018-09-02T21:24:33.718Z,7.77
2018-09-02T21:27:03.285Z,8.40
2018-09-02T21:29:32.836Z,8.53
2018-09-02T21:32:02.415Z,8.93
2018-09-02T21:34:31.980Z,9.30
2018-09-02T21:37:01.591Z,8.60
2018-09-02T21:39:31.100Z,8.67
2018-09-02T21:42:00.654Z,9.73
2018-09-02T21:44:30.283Z,9.40
2018-09-02T21:46:59.864Z,8.53
2018-09-02T21:49:29.434Z,9.43
2018-09-02T21:51:58.991Z,9.17
2018-09-02T21:54:28.592Z,9.40
2018-09-02T21:56:59.116Z,9.33
2018-09-02T21:59:28.641Z,9.37
2018-09-02T22:01:58.211Z,9.27
2018-09-02T22:04:27.770Z,9.20
2018-09-02T22:06:57.363Z,9.23
2018-09-02T22:09:26.868Z,8.23
2018-09-02T22:11:56.403Z,8.90
2018-09-02T22:14:26.035Z,8.33
2018-09-02T22:16:55.625Z,8.67
2018-09-02T22:19:25.123Z,8.63
2018-09-02T22:21:54.679Z,8.47
2018-09-02T22:24:24.238Z,8.47
2018-09-02T22:26:53.831Z,8.30
2018-09-02T22:29:23.335Z,8.33
2018-09-02T22:31:52.871Z,8.27
2018-09-02T22:34:22.363Z,8.50
2018-09-02T22:36:51.886Z,9.07
2018-09-02T22:39:21.528Z,8.37
2018-09-02T22:41:51.179Z,8.30
2018-09-02T22:44:20.868Z,8.73
2018-09-02T22:46:50.427Z,7.97
2018-09-02T22:49:19.960Z,8.80
2018-09-02T22:51:49.570Z,8.33
2018-09-02T22:54:19.071Z,8.87
2018-09-02T22:56:48.618Z,8.47
2018-09-02T22:59:18.239Z,8.73
2018-09-02T23:01:47.852Z,9.07
2018-09-02T23:04:17.457Z,8.37
2018-09-02T23:06:47.016Z,9.03
2018-09-02T23:09:16.551Z,9.13
2018-09-02T23:11:46.148Z,8.83
2018-09-02T23:14:15.647Z,8.50
2018-09-02T23:16:45.240Z,8.77
2018-09-02T23:19:14.803Z,8.77
2018-09-02T23:21:44.335Z,9.00
2018-09-02T23:24:13.959Z,9.23
2018-09-02T23:26:43.564Z,8.83
2018-09-02T23:29:13.223Z,8.43
2018-09-02T23:31:42.775Z,8.83
2018-09-02T23:34:12.303Z,8.23
2018-09-02T23:36:41.840Z,8.37
2018-09-02T23:39:12.511Z,8.77
2018-09-02T23:41:42.063Z,9.10
2018-09-02T23:44:11.551Z,8.73
2018-09-02T23:46:41.076Z,8.77
2018-09-02T23:49:10.610Z,8.63
2018-09-02T23:51:40.166Z,8.20
2018-09-02T23:54:09.687Z,7.77
2018-09-02T23:56:39.192Z,10.07
2018-09-02T23:59:08.722Z,9.07
